Time;durP1;ratioP1;P1;durP2;ratioP2;P2;SDS_P1;SDS_P2;PMS_P1;PMS_P2;Temp;Humidity;BMP_temperature;BMP_pressure;BME280_temperature;BME280_humidity;BME280_pressure;Samples;Min_cycle;Max_cycle;Signal;HPM_P1;HPM_P2
2023/08/24 00:00:23;;;;;;;5.18;3.20;;;;;;;;;;5035382;28;20924;-80
2023/08/24 00:02:49;;;;;;;5.05;3.28;;;;;;;;;;5035951;28;20059;-80
2023/08/24 00:05:15;;;;;;;5.70;2.97;;;;;;;;;;5043863;28;20090;-80
2023/08/24 00:07:41;;;;;;;11.50;3.42;;;;;;;;;;5038728;28;20403;-81
2023/08/24 00:10:07;;;;;;;5.97;3.25;;;;;;;;;;5047598;28;20047;-80
2023/08/24 00:12:34;;;;;;;6.57;3.38;;;16.80;99.90;;;;;;5039095;28;20040;-81
2023/08/24 00:15:00;;;;;;;5.97;2.80;;;;;;;;;;5042868;28;20039;-81
2023/08/24 00:17:26;;;;;;;4.07;2.70;;;;;;;;;;5040566;28;20017;-80
2023/08/24 00:19:51;;;;;;;6.47;3.17;;;;;;;;;;5049794;28;20017;-80
2023/08/24 00:22:17;;;;;;;5.68;3.88;;;16.90;99.90;;;;;;5036490;28;20517;-80
2023/08/24 00:24:44;;;;;;;4.28;2.83;;;;;;;;;;5044443;28;20067;-80
2023/08/24 00:27:10;;;;;;;7.65;3.70;;;;;;;;;;5042102;28;20045;-80
2023/08/24 00:29:36;;;;;;;7.07;2.85;;;;;;;;;;5037877;28;20071;-80
2023/08/24 00:32:02;;;;;;;6.35;3.20;;;;;;;;;;5046012;28;20036;-80
2023/08/24 00:34:27;;;;;;;9.18;3.55;;;16.80;99.90;;;;;;5036358;28;20053;-80
2023/08/24 00:36:53;;;;;;;5.40;3.70;;;;;;;;;;5039181;28;20025;-80
2023/08/24 00:39:20;;;;;;;4.35;2.75;;;;;;;;;;5042205;28;20048;-81
2023/08/24 00:41:46;;;;;;;4.93;3.22;;;;;;;;;;5046927;28;20028;-80
2023/08/24 00:44:12;;;;;;;3.42;2.55;;;16.70;99.90;;;;;;5041345;28;20029;-80
2023/08/24 00:46:38;;;;;;;4.82;3.15;;;;;;;;;;5050094;28;20032;-80
2023/08/24 00:49:03;;;;;;;5.15;2.92;;;16.10;99.90;;;;;;5046924;28;20024;-80
2023/08/24 00:51:29;;;;;;;6.25;3.58;;;;;;;;;;5046107;28;20021;-81
2023/08/24 00:53:57;;;;;;;4.88;3.47;;;16.70;99.90;;;;;;5052338;28;20025;-80
2023/08/24 00:56:24;;;;;;;11.30;3.40;;;;;;;;;;5049253;28;20044;-80
2023/08/24 00:58:51;;;;;;;8.20;3.92;;;;;;;;;;5047072;28;20025;-80
2023/08/24 01:01:20;;;;;;;8.40;3.42;;;16.40;99.90;;;;;;5039023;28;20025;-80
2023/08/24 01:03:45;;;;;;;7.03;3.58;;;16.70;99.90;;;;;;5035077;28;20028;-81
2023/08/24 01:06:11;;;;;;;7.95;3.67;;;;;;;;;;5042567;28;20505;-80
2023/08/24 01:08:37;;;;;;;5.43;3.25;;;;;;;;;;5050996;28;20037;-81
2023/08/24 01:11:17;;;;;;;6.70;3.58;;;16.00;99.90;;;;;;5044992;28;20053;-80
2023/08/24 01:14:01;;;;;;;8.57;3.08;;;;;;;;;;5040163;28;20033;-81
2023/08/24 01:16:31;;;;;;;4.82;3.45;;;16.70;99.90;;;;;;5052229;28;20053;-80
2023/08/24 01:18:59;;;;;;;5.10;2.88;;;;;;;;;;5043439;28;20021;-81
2023/08/24 01:21:25;;;;;;;7.85;3.00;;;;;;;;;;5046706;28;20033;-80
2023/08/24 01:23:56;;;;;;;5.03;3.53;;;15.60;99.90;;;;;;5041651;28;20024;-80
2023/08/24 01:26:22;;;;;;;4.80;3.25;;;16.60;99.90;;;;;;5043299;28;20107;-81
2023/08/24 01:28:48;;;;;;;6.40;3.75;;;;;;;;;;5044223;28;20029;-81
2023/08/24 01:31:15;;;;;;;8.75;3.72;;;16.70;99.90;;;;;;5043314;28;20033;-81
2023/08/24 01:33:41;;;;;;;4.43;3.22;;;;;;;;;;5042752;28;20029;-80
2023/08/24 01:36:09;;;;;;;5.70;3.13;;;;;;;;;;5050469;28;20021;-81
2023/08/24 01:38:35;;;;;;;5.88;2.97;;;;;;;;;;5040697;28;20041;-80
2023/08/24 01:41:04;;;;;;;3.25;2.42;;;;;;;;;;5041826;28;20052;-81
2023/08/24 01:43:33;;;;;;;5.75;3.50;;;15.50;99.90;;;;;;5045955;28;20044;-81
2023/08/24 01:46:00;;;;;;;4.95;2.60;;;;;;;;;;5047548;28;20041;-81
2023/08/24 01:48:26;;;;;;;7.00;3.50;;;;;;;;;;5055440;28;20117;-81
2023/08/24 01:50:52;;;;;;;4.63;3.00;;;;;;;;;;5045790;28;20081;-80
2023/08/24 01:53:18;;;;;;;7.25;3.10;;;;;;;;;;5045560;28;20212;-81
2023/08/24 01:55:47;;;;;;;3.42;2.83;;;16.10;99.90;;;;;;5043485;28;20047;-81
2023/08/24 01:58:13;;;;;;;4.45;3.10;;;;;;;;;;5046034;28;20036;-80
2023/08/24 02:00:39;;;;;;;4.03;2.40;;;;;;;;;;5046009;28;20024;-81
2023/08/24 02:03:05;;;;;;;4.28;2.97;;;;;;;;;;5051008;28;20039;-81
2023/08/24 02:05:31;;;;;;;7.95;3.17;;;;;;;;;;5059884;28;20029;-81
2023/08/24 02:07:57;;;;;;;5.28;3.45;;;;;;;;;;5059339;28;20059;-81
2023/08/24 02:10:23;;;;;;;5.88;3.08;;;;;;;;;;5038357;28;20551;-81
2023/08/24 02:12:49;;;;;;;9.90;4.15;;;;;;;;;;5048276;28;20025;-81
2023/08/24 02:15:15;;;;;;;5.97;3.20;;;;;;;;;;5051092;28;20056;-82
2023/08/24 02:17:41;;;;;;;4.70;2.78;;;;;;;;;;5047053;28;20039;-82
2023/08/24 02:20:11;;;;;;;10.13;3.05;;;;;;;;;;5049994;28;20033;-82
2023/08/24 02:22:37;;;;;;;4.78;3.33;;;;;;;;;;5048276;28;20025;-80
2023/08/24 02:25:04;;;;;;;4.13;2.72;;;;;;;;;;5050672;28;20029;-81
2023/08/24 02:27:31;;;;;;;9.52;3.95;;;;;;;;;;5047742;28;20040;-81
2023/08/24 02:29:57;;;;;;;4.72;3.25;;;;;;;;;;5049999;28;20040;-81
2023/08/24 02:32:22;;;;;;;8.10;4.00;;;;;;;;;;5043590;28;20025;-81
2023/08/24 02:34:48;;;;;;;4.93;3.50;;;;;;;;;;5046885;28;20013;-81
2023/08/24 02:37:14;;;;;;;5.20;2.92;;;;;;;;;;5052294;28;20033;-82
2023/08/24 02:39:43;;;;;;;5.05;3.58;;;;;;;;;;5046250;28;20040;-81
2023/08/24 02:42:08;;;;;;;5.25;2.55;;;;;;;;;;5043734;28;20029;-81
2023/08/24 02:44:34;;;;;;;5.95;3.15;;;;;;;;;;5039676;28;20029;-81
2023/08/24 02:47:00;;;;;;;4.65;2.88;;;15.40;99.90;;;;;;5046431;28;20048;-81
2023/08/24 02:49:26;;;;;;;4.95;3.33;;;;;;;;;;5050001;28;20108;-81
2023/08/24 02:51:52;;;;;;;6.47;3.28;;;;;;;;;;5042207;28;20103;-81
2023/08/24 02:54:18;;;;;;;4.68;3.60;;;;;;;;;;5047460;28;20024;-81
2023/08/24 02:56:43;;;;;;;4.68;3.10;;;16.30;99.90;;;;;;5048811;28;20029;-81
2023/08/24 02:59:09;;;;;;;5.03;2.72;;;;;;;;;;5053107;28;20025;-80
2023/08/24 03:01:38;;;;;;;4.18;3.05;;;;;;;;;;5048836;28;20056;-82
2023/08/24 03:04:05;;;;;;;3.38;2.30;;;15.40;99.90;;;;;;5044616;28;20047;-81
2023/08/24 03:06:31;;;;;;;8.25;3.85;;;;;;;;;;5042341;28;20942;-81
2023/08/24 03:08:57;;;;;;;4.47;2.53;;;;;;;;;;5044669;28;20053;-82
2023/08/24 03:11:23;;;;;;;6.93;3.78;;;;;;;;;;5045718;28;20059;-82
2023/08/24 03:13:49;;;;;;;3.75;2.78;;;;;;;;;;5038057;28;20017;-81
2023/08/24 03:16:15;;;;;;;5.97;2.47;;;;;;;;;;5045376;28;20148;-81
2023/08/24 03:18:41;;;;;;;7.50;3.00;;;;;;;;;;5047836;28;20037;-81
2023/08/24 03:21:07;;;;;;;3.40;2.28;;;;;;;;;;5044676;28;20609;-80
2023/08/24 03:23:33;;;;;;;6.55;3.05;;;;;;;;;;5040987;28;20040;-81
2023/08/24 03:25:59;;;;;;;4.05;2.65;;;;;;;;;;5044118;28;20081;-80
2023/08/24 03:28:25;;;;;;;4.55;2.97;;;;;;;;;;5047833;28;20676;-81
2023/08/24 03:30:52;;;;;;;4.43;3.17;;;15.30;99.90;;;;;;5040813;28;20049;-81
2023/08/24 03:33:19;;;;;;;6.40;3.20;;;;;;;;;;5040266;28;20025;-81
2023/08/24 03:35:45;;;;;;;3.90;2.78;;;;;;;;;;5041698;28;20017;-81
2023/08/24 03:38:11;;;;;;;5.97;3.53;;;;;;;;;;5045457;28;20040;-81
2023/08/24 03:40:37;;;;;;;5.45;3.15;;;;;;;;;;5048193;28;20109;-80
2023/08/24 03:43:03;;;;;;;7.43;3.30;;;;;;;;;;5045105;28;20028;-81
2023/08/24 03:45:29;;;;;;;3.90;2.88;;;;;;;;;;5044119;28;20041;-81
2023/08/24 03:47:55;;;;;;;4.65;2.83;;;;;;;;;;5045851;28;20063;-80
2023/08/24 03:50:22;;;;;;;4.28;2.92;;;;;;;;;;5046533;28;20025;-81
2023/08/24 03:52:48;;;;;;;5.72;2.80;;;;;;;;;;5041565;28;20037;-80
2023/08/24 03:55:14;;;;;;;9.82;3.33;;;16.00;99.90;;;;;;5045237;28;20033;-80
2023/08/24 03:57:40;;;;;;;5.13;3.17;;;;;;;;;;5045170;28;20047;-80
2023/08/24 04:00:10;;;;;;;6.88;3.42;;;;;;;;;;5040614;28;20037;-79
2023/08/24 04:02:36;;;;;;;4.40;2.90;;;;;;;;;;5042053;28;20054;-81
2023/08/24 04:05:03;;;;;;;3.80;2.70;;;;;;;;;;5042350;28;20017;-80
2023/08/24 04:07:31;;;;;;;3.80;2.95;;;;;;;;;;5050145;28;20036;-80
2023/08/24 04:09:57;;;;;;;4.18;2.83;;;;;;;;;;5047999;28;20052;-81
2023/08/24 04:12:23;;;;;;;5.47;3.10;;;;;;;;;;5048027;28;21192;-80
2023/08/24 04:14:49;;;;;;;5.53;3.53;;;;;;;;;;5038787;28;20104;-80
2023/08/24 04:17:14;;;;;;;4.57;3.20;;;;;;;;;;5044811;28;20647;-80
2023/08/24 04:19:40;;;;;;;4.55;2.97;;;15.10;99.90;;;;;;5045914;28;20431;-80
2023/08/24 04:22:06;;;;;;;5.00;2.67;;;;;;;;;;5042520;28;20094;-81
2023/08/24 04:24:32;;;;;;;8.50;3.42;;;;;;;;;;5044773;28;20060;-79
2023/08/24 04:26:58;;;;;;;4.97;2.80;;;;;;;;;;5042862;28;20068;-80
2023/08/24 04:29:24;;;;;;;9.75;3.60;;;;;;;;;;5048234;28;20087;-80
2023/08/24 04:31:50;;;;;;;4.63;2.80;;;;;;;;;;5050805;28;20523;-80
2023/08/24 04:34:16;;;;;;;4.72;3.28;;;;;;;;;;5043079;28;20676;-81
2023/08/24 04:36:42;;;;;;;6.05;3.05;;;;;;;;;;5041141;28;20495;-81
2023/08/24 04:39:08;;;;;;;7.40;3.47;;;;;;;;;;5043777;28;20096;-82
2023/08/24 04:41:34;;;;;;;4.43;3.03;;;;;;;;;;5045187;28;20033;-82
2023/08/24 04:44:00;;;;;;;8.93;2.80;;;;;;;;;;5048480;28;20029;-81
2023/08/24 04:46:26;;;;;;;4.60;3.25;;;15.50;99.90;;;;;;5048324;28;20029;-82
2023/08/24 04:48:52;;;;;;;4.78;3.00;;;;;;;;;;5049736;28;20110;-81
2023/08/24 04:51:18;;;;;;;4.45;2.83;;;;;;;;;;5046734;28;20017;-82
2023/08/24 04:53:44;;;;;;;7.35;2.97;;;;;;;;;;5047741;28;20041;-81
2023/08/24 04:56:09;;;;;;;3.97;2.85;;;16.60;99.90;;;;;;5048124;28;20065;-81
2023/08/24 04:58:35;;;;;;;5.65;2.97;;;;;;;;;;5050386;28;20025;-81
2023/08/24 05:01:01;;;;;;;4.63;2.45;;;15.90;99.90;;;;;;5042298;28;20033;-81
2023/08/24 05:03:27;;;;;;;6.15;2.42;;;;;;;;;;5047039;28;20028;-81
2023/08/24 05:05:52;;;;;;;3.97;2.83;;;;;;;;;;5050803;28;20052;-80
2023/08/24 05:08:18;;;;;;;8.15;3.13;;;;;;;;;;5051704;28;20041;-80
2023/08/24 05:10:45;;;;;;;5.20;2.72;;;;;;;;;;5051579;28;20085;-81
2023/08/24 05:13:11;;;;;;;2.95;2.45;;;;;;;;;;5039102;28;20078;-81
2023/08/24 05:15:37;;;;;;;5.22;2.40;;;;;;;;;;5046589;28;20116;-81
2023/08/24 05:18:03;;;;;;;4.60;2.85;;;;;;;;;;5044703;28;20502;-81
2023/08/24 05:20:29;;;;;;;5.18;2.58;;;;;;;;;;5047609;28;20487;-80
2023/08/24 05:22:55;;;;;;;7.90;2.50;;;;;;;;;;5047977;28;20033;-81
2023/08/24 05:25:22;;;;;;;4.00;2.67;;;16.20;99.90;;;;;;5045073;28;20563;-81
2023/08/24 05:27:48;;;;;;;5.40;2.75;;;16.40;99.90;;;;;;5046149;28;20028;-82
2023/08/24 05:30:13;;;;;;;7.20;3.33;;;16.40;99.90;;;;;;5046835;28;20394;-81
2023/08/24 05:32:39;;;;;;;8.00;3.10;;;;;;;;;;5045668;28;20035;-81
2023/08/24 05:35:06;;;;;;;12.68;3.10;;;;;;;;;;5040749;28;20881;-80
2023/08/24 05:37:32;;;;;;;4.57;2.55;;;;;;;;;;5038889;28;20088;-81
2023/08/24 05:39:58;;;;;;;3.78;2.55;;;;;;;;;;5042258;28;20028;-83
2023/08/24 05:42:24;;;;;;;5.97;2.92;;;;;;;;;;5048920;28;20036;-82
2023/08/24 05:44:50;;;;;;;5.55;3.35;;;;;;;;;;5046450;28;20021;-82
2023/08/24 05:47:16;;;;;;;7.75;2.63;;;;;;;;;;5039960;28;20044;-81
2023/08/24 05:49:42;;;;;;;5.22;2.90;;;;;;;;;;5050439;28;20033;-82
2023/08/24 05:52:08;;;;;;;4.57;3.40;;;17.10;99.90;;;;;;5057898;28;20054;-82
2023/08/24 05:54:34;;;;;;;3.42;2.25;;;;;;;;;;5044351;28;20558;-83
2023/08/24 05:57:00;;;;;;;3.13;2.28;;;;;;;;;;5047032;28;20026;-81
2023/08/24 05:59:26;;;;;;;3.88;2.70;;;17.40;99.90;;;;;;5047473;28;20091;-82
2023/08/24 06:01:53;;;;;;;4.05;2.80;;;;;;;;;;5047088;28;20112;-81
2023/08/24 06:04:18;;;;;;;3.55;2.42;;;;;;;;;;5052729;28;20191;-83
2023/08/24 06:06:44;;;;;;;3.63;2.50;;;17.70;99.90;;;;;;5052368;28;20017;-82
2023/08/24 06:09:10;;;;;;;3.75;2.10;;;18.70;99.90;;;;;;5052435;28;20111;-82
2023/08/24 06:11:35;;;;;;;3.83;2.00;;;17.90;99.90;;;;;;5056452;28;20024;-81
2023/08/24 06:14:02;;;;;;;5.10;2.72;;;;;;;;;;5058732;28;20034;-82
2023/08/24 06:16:28;;;;;;;5.78;2.67;;;;;;;;;;5054681;28;20055;-82
2023/08/24 06:18:54;;;;;;;2.83;2.10;;;;;;;;;;5050784;28;20097;-82
2023/08/24 06:21:20;;;;;;;4.20;2.33;;;;;;;;;;5046315;28;20060;-82
2023/08/24 06:23:47;;;;;;;5.30;2.53;;;;;;;;;;5045029;28;20053;-84
2023/08/24 06:26:13;;;;;;;3.17;1.92;;;19.40;99.90;;;;;;5051878;28;20021;-82
2023/08/24 06:28:39;;;;;;;6.53;2.13;;;;;;;;;;5046781;28;20040;-82
2023/08/24 06:31:07;;;;;;;5.13;2.17;;;;;;;;;;5042102;28;20022;-81
2023/08/24 06:33:36;;;;;;;6.95;2.08;;;19.30;99.90;;;;;;5055178;28;20021;-82
2023/08/24 06:36:05;;;;;;;10.20;2.40;;;19.20;99.90;;;;;;5057606;28;20055;-80
2023/08/24 06:38:31;;;;;;;2.58;1.70;;;;;;;;;;5052191;28;20040;-82
2023/08/24 06:40:58;;;;;;;5.65;2.10;;;19.90;99.90;;;;;;5046367;28;20045;-81
2023/08/24 06:43:24;;;;;;;4.40;2.17;;;;;;;;;;5044515;28;20120;-82
2023/08/24 06:45:50;;;;;;;4.93;2.45;;;;;;;;;;5045959;28;20032;-82
2023/08/24 06:48:16;;;;;;;6.93;2.42;;;;;;;;;;5045116;28;20041;-81
2023/08/24 06:50:42;;;;;;;3.95;2.20;;;;;;;;;;5043683;28;20683;-80
2023/08/24 06:53:08;;;;;;;4.07;2.35;;;;;;;;;;5033596;28;20405;-81
2023/08/24 06:55:34;;;;;;;6.35;2.47;;;;;;;;;;5046077;28;20507;-82
2023/08/24 06:58:00;;;;;;;4.80;1.85;;;;;;;;;;5046492;28;20328;-82
2023/08/24 07:00:26;;;;;;;4.57;2.08;;;;;;;;;;5049161;28;20029;-82
2023/08/24 07:02:52;;;;;;;3.40;1.80;;;20.50;99.90;;;;;;5036470;28;20039;-81
2023/08/24 07:05:20;;;;;;;2.85;1.73;;;;;;;;;;5043230;28;20052;-82
2023/08/24 07:07:47;;;;;;;3.70;1.80;;;;;;;;;;5050432;28;20029;-81
2023/08/24 07:10:13;;;;;;;3.72;1.77;;;;;;;;;;5043638;28;20150;-82
2023/08/24 07:12:40;;;;;;;2.88;1.60;;;;;;;;;;5047687;28;20557;-80
2023/08/24 07:15:07;;;;;;;9.18;2.03;;;19.60;99.90;;;;;;5047568;28;20052;-80
2023/08/24 07:17:33;;;;;;;3.17;1.80;;;;;;;;;;5045149;28;20043;-79
2023/08/24 07:19:59;;;;;;;6.35;2.42;;;;;;;;;;5045100;28;20029;-80
2023/08/24 07:22:27;;;;;;;3.40;2.03;;;;;;;;;;5045851;28;20396;-81
2023/08/24 07:24:53;;;;;;;8.23;1.80;;;;;;;;;;5050205;28;20055;-80
2023/08/24 07:27:19;;;;;;;4.22;1.90;;;21.60;99.90;;;;;;5044603;28;20045;-81
2023/08/24 07:29:45;;;;;;;3.90;1.25;;;;;;;;;;5039482;28;20032;-82
2023/08/24 07:32:11;;;;;;;3.17;1.33;;;;;;;;;;5045529;28;20143;-82
2023/08/24 07:34:37;;;;;;;2.40;1.48;;;;;;;;;;5048252;28;20041;-83
2023/08/24 07:37:03;;;;;;;4.05;1.50;;;;;;;;;;5056541;28;20517;-83
2023/08/24 07:39:29;;;;;;;2.63;1.10;;;;;;;;;;5049688;28;20029;-82
2023/08/24 07:41:55;;;;;;;5.47;1.83;;;;;;;;;;5045715;28;20025;-82
2023/08/24 07:44:21;;;;;;;2.05;1.13;;;24.10;99.90;;;;;;5053641;28;20037;-82
2023/08/24 07:46:47;;;;;;;1.80;0.98;;;24.60;99.90;;;;;;5052909;28;20036;-80
2023/08/24 07:49:13;;;;;;;2.30;1.60;;;;;;;;;;5048894;28;20103;-80
2023/08/24 07:51:39;;;;;;;1.83;0.93;;;;;;;;;;5053828;28;20097;-80
2023/08/24 07:54:06;;;;;;;4.22;0.90;;;;;;;;;;5034821;28;20450;-81
2023/08/24 07:56:32;;;;;;;2.22;1.65;;;;;;;;;;5048798;28;20029;-83
2023/08/24 07:58:58;;;;;;;2.58;1.40;;;25.80;99.90;;;;;;5049676;28;20029;-83
2023/08/24 08:01:24;;;;;;;5.93;1.48;;;;;;;;;;5051255;28;20025;-81
2023/08/24 08:03:50;;;;;;;3.65;0.93;;;;;;;;;;5049171;28;20044;-82
2023/08/24 08:06:16;;;;;;;2.70;0.95;;;;;;;;;;5043095;28;20103;-82
2023/08/24 08:08:44;;;;;;;4.95;1.00;;;;;;;;;;5048587;28;20041;-83
2023/08/24 08:11:10;;;;;;;2.40;1.05;;;;;;;;;;5045822;28;20093;-81
2023/08/24 08:13:35;;;;;;;1.35;0.90;;;24.20;99.90;;;;;;5048200;28;20049;-82
2023/08/24 08:16:05;;;;;;;2.28;1.10;;;23.90;99.90;;;;;;5050947;28;20035;-83
2023/08/24 08:18:33;;;;;;;2.15;1.00;;;24.70;99.90;;;;;;5048843;28;20482;-83
2023/08/24 08:20:58;;;;;;;4.95;1.35;;;23.80;99.90;;;;;;5051247;28;20029;-83
2023/08/24 08:23:24;;;;;;;2.00;1.05;;;;;;;;;;5048509;28;20400;-82
2023/08/24 08:25:50;;;;;;;3.40;1.15;;;;;;;;;;5052733;28;20029;-79
2023/08/24 08:28:17;;;;;;;2.60;1.33;;;;;;;;;;5049361;28;20087;-82
2023/08/24 08:30:43;;;;;;;1.55;0.73;;;;;;;;;;5044260;28;20033;-82
2023/08/24 08:33:09;;;;;;;9.50;0.98;;;;;;;;;;5045950;28;20064;-82
2023/08/24 08:35:35;;;;;;;1.80;1.23;;;;;;;;;;5045233;28;20090;-84
2023/08/24 08:38:01;;;;;;;1.90;0.90;;;;;;;;;;5051651;28;20017;-82
2023/08/24 08:40:30;;;;;;;1.73;0.93;;;26.70;99.90;;;;;;5041951;28;20502;-83
2023/08/24 08:42:58;;;;;;;1.80;0.90;;;25.40;99.90;;;;;;5035049;28;20029;-82
2023/08/24 08:45:26;;;;;;;1.20;0.82;;;27.40;99.90;;;;;;5041005;28;20214;-83
2023/08/24 08:47:52;;;;;;;2.88;0.95;;;;;;;;;;5034638;28;20025;-82
2023/08/24 08:50:18;;;;;;;2.92;1.20;;;;;;;;;;5041527;28;20031;-82
2023/08/24 08:52:44;;;;;;;5.45;1.10;;;;;;;;;;5037285;28;20025;-82
2023/08/24 08:55:11;;;;;;;1.75;0.90;;;;;;;;;;5033316;28;20146;-81
2023/08/24 08:57:39;;;;;;;1.75;0.68;;;30.20;96.90;;;;;;5033713;28;20037;-80
2023/08/24 09:00:05;;;;;;;3.53;0.73;;;;;;;;;;5032762;28;20037;-80
2023/08/24 09:02:32;;;;;;;2.03;0.88;;;31.00;98.10;;;;;;5036923;28;20032;-80
2023/08/24 09:05:01;;;;;;;3.70;0.68;;;32.20;96.70;;;;;;5022850;28;20120;-80
2023/08/24 09:07:27;;;;;;;3.97;1.15;;;;;;;;;;5040117;28;20041;-81
2023/08/24 09:09:54;;;;;;;1.63;0.73;;;;;;;;;;5036219;28;20033;-82
2023/08/24 09:12:20;;;;;;;2.75;0.93;;;;;;;;;;5042028;28;20221;-82
2023/08/24 09:14:46;;;;;;;4.70;1.48;;;;;;;;;;5039693;28;20519;-81
2023/08/24 09:17:20;;;;;;;2.03;0.95;;;34.80;78.20;;;;;;5040565;28;20086;-81
2023/08/24 09:19:46;;;;;;;3.47;0.52;;;;;;;;;;5037750;28;20117;-82
2023/08/24 09:22:12;;;;;;;4.68;1.30;;;;;;;;;;5041450;28;20056;-83
2023/08/24 09:24:38;;;;;;;1.80;0.88;;;;;;;;;;5040986;28;20033;-81
2023/08/24 09:27:15;;;;;;;1.73;0.70;;;32.00;90.40;;;;;;5040787;28;20048;-82
2023/08/24 09:29:41;;;;;;;1.58;1.02;;;;;;;;;;5042305;28;20025;-82
2023/08/24 09:32:10;;;;;;;8.98;1.25;;;30.70;85.10;;;;;;5040331;28;20032;-80
2023/08/24 09:34:36;;;;;;;2.13;1.10;;;30.00;89.90;;;;;;5044319;28;20712;-81
2023/08/24 09:37:06;;;;;;;1.73;0.88;;;;;;;;;;5044845;28;20038;-83
2023/08/24 09:39:32;;;;;;;2.88;1.15;;;;;;;;;;5046751;28;20025;-82
2023/08/24 09:42:03;;;;;;;1.58;0.95;;;29.20;90.40;;;;;;5042031;28;20203;-82
2023/08/24 09:44:29;;;;;;;2.85;1.02;;;;;;;;;;5039452;28;20710;-82
2023/08/24 09:46:55;;;;;;;3.03;1.08;;;;;;;;;;5045504;28;20041;-82
2023/08/24 09:49:21;;;;;;;1.70;1.00;;;;;;;;;;5045657;28;20060;-82
2023/08/24 09:51:49;;;;;;;3.10;0.93;;;30.20;91.30;;;;;;5040585;28;20040;-81
2023/08/24 09:54:21;;;;;;;1.92;1.13;;;30.40;90.10;;;;;;5048807;28;20177;-82
2023/08/24 09:56:50;;;;;;;4.20;2.13;;;30.10;90.80;;;;;;5039143;28;20043;-83
2023/08/24 09:59:21;;;;;;;5.05;1.48;;;30.10;89.70;;;;;;5042212;28;20063;-81
2023/08/24 10:01:49;;;;;;;5.47;1.60;;;30.20;86.30;;;;;;5046541;28;20032;-81
2023/08/24 10:04:20;;;;;;;3.75;1.75;;;29.80;86.50;;;;;;5044215;28;20419;-81
2023/08/24 10:06:51;;;;;;;3.97;1.77;;;30.70;87.50;;;;;;5042340;28;20032;-83
2023/08/24 10:09:25;;;;;;;4.15;1.83;;;30.70;87.70;;;;;;5045334;28;20067;-81
2023/08/24 10:11:56;;;;;;;3.03;1.45;;;29.90;85.50;;;;;;5042067;28;20163;-81
2023/08/24 10:14:32;;;;;;;2.53;1.30;;;29.90;97.70;;;;;;5041737;28;20183;-81
2023/08/24 10:16:58;;;;;;;5.25;1.23;;;29.80;86.30;;;;;;5042173;28;20431;-81
2023/08/24 10:19:25;;;;;;;3.40;1.10;;;30.20;97.50;;;;;;5041164;28;20036;-82
2023/08/24 10:21:53;;;;;;;3.90;1.50;;;29.90;85.70;;;;;;5039344;28;20048;-80
2023/08/24 10:24:20;;;;;;;4.55;1.52;;;30.60;88.30;;;;;;5041953;28;20037;-81
2023/08/24 10:26:47;;;;;;;2.47;1.38;;;;;;;;;;5044322;28;20694;-82
2023/08/24 10:29:13;;;;;;;4.38;1.17;;;;;;;;;;5044258;28;20036;-81
2023/08/24 10:31:41;;;;;;;2.33;1.05;;;30.70;88.10;;;;;;5057457;28;20005;-80
2023/08/24 10:34:07;;;;;;;5.45;1.45;;;;;;;;;;5056923;28;20092;-81
2023/08/24 10:36:34;;;;;;;2.72;1.13;;;;;;;;;;5043880;28;20089;-81
2023/08/24 10:39:05;;;;;;;4.43;2.03;;;30.40;84.40;;;;;;5046982;28;20040;-82
2023/08/24 10:41:49;;;;;;;2.15;1.40;;;30.10;83.30;;;;;;5049268;28;20032;-82
2023/08/24 10:44:35;;;;;;;2.05;1.00;;;30.90;80.80;;;;;;5042967;28;20021;-81
2023/08/24 10:47:08;;;;;;;3.63;1.70;;;;;;;;;;5056977;28;20028;-83
2023/08/24 10:49:38;;;;;;;3.70;1.30;;;31.30;79.80;;;;;;5051218;28;20021;-82
2023/08/24 10:52:23;;;;;;;2.88;1.10;;;31.10;83.20;;;;;;5050611;28;20470;-82
2023/08/24 10:54:51;;;;;;;3.05;1.30;;;31.30;82.50;;;;;;5042026;28;20126;-80
2023/08/24 10:57:34;;;;;;;3.38;1.10;;;31.00;76.50;;;;;;5045558;28;20040;-82
2023/08/24 11:00:09;;;;;;;4.22;1.33;;;31.20;77.80;;;;;;5049066;28;20033;-81
2023/08/24 11:02:49;;;;;;;2.70;1.45;;;31.50;81.90;;;;;;5048976;28;20059;-81
2023/08/24 11:05:16;;;;;;;12.75;1.95;;;;;;;;;;5044506;28;20558;-81
2023/08/24 11:07:53;;;;;;;6.13;1.60;;;31.30;77.90;;;;;;5047581;28;20044;-81
2023/08/24 11:10:19;;;;;;;5.28;1.13;;;;;;;;;;5043036;28;20034;-81
2023/08/24 11:13:07;;;;;;;7.10;1.63;;;31.70;82.00;;;;;;5049378;28;20033;-83
2023/08/24 11:15:58;;;;;;;4.38;1.17;;;31.70;82.90;;;;;;5053053;28;20021;-81
2023/08/24 11:18:28;;;;;;;2.45;1.40;;;31.50;79.60;;;;;;5050354;28;20025;-83
2023/08/24 11:20:55;;;;;;;2.00;1.33;;;;;;;;;;5045255;28;20056;-82
2023/08/24 11:23:22;;;;;;;10.05;1.30;;;33.80;83.80;;;;;;5042043;28;20026;-82
2023/08/24 11:25:57;;;;;;;5.30;1.50;;;32.00;83.10;;;;;;5049132;28;20032;-83
2023/08/24 11:28:23;;;;;;;3.13;1.20;;;30.30;82.30;;;;;;5051694;28;20045;-82
2023/08/24 11:30:50;;;;;;;3.63;1.70;;;31.60;79.50;;;;;;5041657;28;20116;-81
2023/08/24 11:33:17;;;;;;;3.75;1.33;;;;;;;;;;5041994;28;20058;-82
2023/08/24 11:35:45;;;;;;;3.85;1.63;;;31.90;80.90;;;;;;5050812;28;20127;-82
2023/08/24 11:38:11;;;;;;;2.97;1.38;;;;;;;;;;5055657;28;20119;-82
2023/08/24 11:40:37;;;;;;;3.00;1.75;;;;;;;;;;5063850;28;20014;-83
2023/08/24 11:43:05;;;;;;;5.28;1.50;;;;;;;;;;5061639;28;20029;-81
2023/08/24 11:45:32;;;;;;;4.68;2.28;;;31.80;84.60;;;;;;5049662;28;20258;-82
2023/08/24 11:48:00;;;;;;;5.50;1.60;;;;;;;;;;5040334;28;20045;-81
2023/08/24 11:50:26;;;;;;;5.85;2.75;;;;;;;;;;5042522;28;20028;-82
2023/08/24 11:52:53;;;;;;;3.25;1.50;;;31.90;82.40;;;;;;5036443;28;20602;-82
2023/08/24 11:55:19;;;;;;;1.88;1.42;;;;;;;;;;5039505;28;20045;-82
2023/08/24 11:57:45;;;;;;;2.90;1.95;;;;;;;;;;5038141;28;20060;-79
2023/08/24 12:00:13;;;;;;;4.43;1.48;;;31.20;86.90;;;;;;5041107;28;20281;-82
2023/08/24 12:02:39;;;;;;;6.45;1.92;;;;;;;;;;5043597;28;20107;-81
2023/08/24 12:05:19;;;;;;;3.83;1.63;;;31.60;84.30;;;;;;5037318;28;20448;-82
2023/08/24 12:07:45;;;;;;;2.92;1.77;;;;;;;;;;5040017;28;20052;-82
2023/08/24 12:10:12;;;;;;;6.18;1.58;;;31.80;83.80;;;;;;5037253;28;20418;-81
2023/08/24 12:12:38;;;;;;;2.95;1.52;;;;;;;;;;5036045;28;20651;-82
2023/08/24 12:15:05;;;;;;;2.75;1.65;;;;;;;;;;5032556;28;20032;-82
2023/08/24 12:17:31;;;;;;;3.78;1.85;;;;;;;;;;5037924;28;20033;-82
2023/08/24 12:19:59;;;;;;;3.63;1.70;;;31.40;83.90;;;;;;5041476;28;20033;-83
2023/08/24 12:22:25;;;;;;;5.20;1.98;;;32.20;88.10;;;;;;5050408;28;20395;-83
2023/08/24 12:24:51;;;;;;;3.38;1.55;;;;;;;;;;5037332;28;20036;-83
2023/08/24 12:27:25;;;;;;;3.03;1.42;;;29.40;82.60;;;;;;5043990;28;20045;-82
2023/08/24 12:29:51;;;;;;;3.80;1.65;;;;;;;;;;5045872;28;20056;-86
2023/08/24 12:32:25;;;;;;;4.25;1.90;;;;;;;;;;5037763;28;20028;-82
2023/08/24 12:34:51;;;;;;;2.63;1.58;;;;;;;;;;5035788;28;20340;-84
2023/08/24 12:37:17;;;;;;;2.65;1.60;;;31.40;79.60;;;;;;5043364;28;20036;-82
2023/08/24 12:39:43;;;;;;;1.60;1.00;;;;;;;;;;5038354;28;20083;-81
2023/08/24 12:42:09;;;;;;;3.20;1.92;;;;;;;;;;5038769;28;20793;-82
2023/08/24 12:44:36;;;;;;;3.15;1.27;;;;;;;;;;5037825;28;20090;-81
2023/08/24 12:47:03;;;;;;;8.00;1.70;;;30.90;82.40;;;;;;5042276;28;20777;-80
2023/08/24 12:49:29;;;;;;;3.80;1.55;;;;;;;;;;5044338;28;20043;-83
2023/08/24 12:51:54;;;;;;;2.80;1.33;;;31.50;92.00;;;;;;5044558;28;20036;-82
2023/08/24 12:54:21;;;;;;;2.90;1.50;;;;;;;;;;5037344;28;20029;-82
2023/08/24 12:56:47;;;;;;;3.75;1.85;;;;;;;;;;5037340;28;20024;-84
2023/08/24 12:59:13;;;;;;;2.28;1.50;;;;;;;;;;5040363;28;20036;-81
2023/08/24 13:01:39;;;;;;;4.65;1.65;;;;;;;;;;5044405;28;20040;-82
2023/08/24 13:04:05;;;;;;;2.70;1.80;;;32.50;92.40;;;;;;5046770;28;20025;-81
2023/08/24 13:06:31;;;;;;;2.58;1.63;;;;;;;;;;5048617;28;20029;-84
2023/08/24 13:08:56;;;;;;;2.92;0.95;;;31.60;90.90;;;;;;5047011;28;20044;-81
2023/08/24 13:11:22;;;;;;;5.85;1.75;;;31.60;82.40;;;;;;5046389;28;20649;-82
2023/08/24 13:13:48;;;;;;;2.67;1.40;;;31.20;83.00;;;;;;5041318;28;20063;-82
2023/08/24 13:16:17;;;;;;;3.03;1.65;;;31.70;78.80;;;;;;5053453;28;20024;-83
2023/08/24 13:18:44;;;;;;;1.80;1.00;;;;;;;;;;5047243;28;20086;-82
2023/08/24 13:21:10;;;;;;;1.95;1.20;;;;;;;;;;5048798;28;20025;-83
2023/08/24 13:23:35;;;;;;;7.10;1.67;;;;;;;;;;5045227;28;21743;-82
2023/08/24 13:26:01;;;;;;;3.03;1.60;;;;;;;;;;5050285;28;20056;-82
2023/08/24 13:28:29;;;;;;;4.82;2.55;;;;;;;;;;5046461;28;20122;-82
2023/08/24 13:30:55;;;;;;;4.05;1.40;;;;;;;;;;5050596;28;20056;-81
2023/08/24 13:33:21;;;;;;;3.75;1.10;;;;;;;;;;5043107;28;20440;-82
2023/08/24 13:35:47;;;;;;;2.58;1.30;;;31.60;94.50;;;;;;5054747;28;20112;-82
2023/08/24 13:38:12;;;;;;;3.67;1.33;;;;;;;;;;5055788;28;20059;-81
2023/08/24 13:40:38;;;;;;;2.30;1.45;;;;;;;;;;5050067;28;20025;-81
2023/08/24 13:43:04;;;;;;;4.22;1.40;;;;;;;;;;5046078;28;20048;-81
2023/08/24 13:45:31;;;;;;;2.65;1.00;;;;;;;;;;5051291;28;20021;-81
2023/08/24 13:47:57;;;;;;;6.82;1.70;;;;;;;;;;5049749;28;20098;-82
2023/08/24 13:50:23;;;;;;;3.15;1.00;;;;;;;;;;5050014;28;20029;-81
2023/08/24 13:52:50;;;;;;;3.75;1.25;;;;;;;;;;5047663;28;20017;-81
2023/08/24 13:55:16;;;;;;;3.33;1.10;;;;;;;;;;5045566;28;20107;-82
2023/08/24 13:57:42;;;;;;;5.93;1.55;;;32.00;81.10;;;;;;5042973;28;20037;-80
2023/08/24 14:00:08;;;;;;;3.40;1.30;;;;;;;;;;5054372;28;20134;-81